Mari Lampton — WDE3648 — position and weather

sailwx.info

Track history (hours):
 
Tides and Currents Weather Stations Pressure Air Temp Water Temp Dewpoint Dewpoint Depression Visibility Wind Speed Wind Dir Waves Ship Positions

Mari Lampton

Owner: MAgnolia Marine Transport Company, Vicksburg, MS. More information available from US FCC via Universal Licensing System and Coast Guard Vessel Documentation Center.

Last reported at 2016-Jun-15 15:34 UTC. Time now 2016-Jun-26 08:25 UTC.
Position N 32°35' W 091°07'.
Warning: this ship's position is 10 days out of date.

Length 34 m.

Type: Towing. MMSI: 367342210.

Date/timePositionNaut miles runAvg speedWind from/ knotsBaromVisibWave heightAir tempDewpointWater temp
2016-Jun-15 15:34N 32°35' W 091°07'5 4.8
2016-Jun-15 14:28N 32°29' W 091°07'5 5.1
2016-Jun-15 13:34N 32°26' W 091°03'4 4.3
2016-Jun-15 12:34N 32°23' W 091°00'6 5.6
2016-Jun-15 11:33N 32°20' W 090°54'2 1.7
2016-Jun-15 10:34N 32°22' W 090°53'0 0.0
2016-Jun-15 09:34N 32°22' W 090°53'0 0.0
2016-Jun-15 08:34N 32°22' W 090°53'0 0.0
2016-Jun-15 07:34N 32°22' W 090°53'0 0.1
2016-Jun-15 06:33N 32°22' W 090°53'2 1.8
2016-Jun-15 05:34N 32°23' W 090°54'0 0.0
2016-Jun-15 04:33N 32°23' W 090°54'0 0.0
2016-Jun-15 03:34N 32°23' W 090°54'0 0.0
2016-Jun-15 02:34N 32°23' W 090°54'0 0.0
2016-Jun-15 01:34N 32°23' W 090°54'0 0.0
2016-Jun-15 00:34N 32°23' W 090°54'0 0.0
2016-Jun-14 23:34N 32°23' W 090°54'0 0.1
2016-Jun-14 22:34N 32°23' W 090°54'0 0.0
2016-Jun-14 21:34N 32°23' W 090°54'1 0.4
2016-Jun-14 19:24N 32°23' W 090°53'1 1.2
2016-Jun-14 18:33N 32°23' W 090°54'0 0.0
2016-Jun-14 17:34N 32°23' W 090°54'0 0.0
2016-Jun-14 16:33N 32°23' W 090°54'0 0.0
2016-Jun-14 15:33N 32°23' W 090°54'2 1.5
2016-Jun-14 14:33N 32°22' W 090°53'5 4.5
2016-Jun-14 13:33N 32°18' W 090°55'6 6.0
2016-Jun-14 12:33N 32°13' W 090°59'6 6.2
2016-Jun-14 11:33N 32°07' W 091°01'  
2016-Jun-12 00:33N 29°50' W 091°60'6 5.6
2016-Jun-11 23:33N 29°48' W 092°06'6 5.9
2016-Jun-11 22:33N 29°47' W 092°12'3 2.8
2016-Jun-11 21:33N 29°48' W 092°15'5 5.1
2016-Jun-11 20:32N 29°51' W 092°21'33 3.5
2016-Jun-11 11:14N 29°56' W 092°58'4 5.3
2016-Jun-11 10:33N 29°56' W 093°02'5 5.3
2016-Jun-11 09:33N 29°56' W 093°08'5 5.3
2016-Jun-11 08:33N 29°59' W 093°13'4 4.4
2016-Jun-11 07:33N 30°03' W 093°16'4 3.8
2016-Jun-11 06:33N 30°06' W 093°18'0 0.0
2016-Jun-11 05:33N 30°06' W 093°18'4 4.3
2016-Jun-11 04:33N 30°04' W 093°22'6 6.4
2016-Jun-11 03:33N 30°04' W 093°30'6 6.3
2016-Jun-11 02:33N 30°04' W 093°37'14 1.1
2016-Jun-10 14:28N 29°58' W 093°52'0 0.0
2016-Jun-10 13:31N 29°58' W 093°52'0 0.0
2016-Jun-10 12:33N 29°58' W 093°52'0 0.0
2016-Jun-10 11:33N 29°58' W 093°52'0 0.0
2016-Jun-10 10:32N 29°58' W 093°52'0 0.0
2016-Jun-10 09:26N 29°58' W 093°52'0 0.0
2016-Jun-10 07:27N 29°58' W 093°52'0 0.0
2016-Jun-10 06:26N 29°58' W 093°52'0 0.0
2016-Jun-10 05:31N 29°58' W 093°52'0 0.0
2016-Jun-10 04:33N 29°58' W 093°52'0 0.0
2016-Jun-10 03:32N 29°58' W 093°52'0 0.0
2016-Jun-10 02:33N 29°58' W 093°52'0 0.0
2016-Jun-10 01:31N 29°58' W 093°52'0 0.0
2016-Jun-10 00:31N 29°58' W 093°52'0 0.0
2016-Jun-09 23:20N 29°58' W 093°52'0 0.0
2016-Jun-09 22:25N 29°58' W 093°52'0 0.0
2016-Jun-09 21:33N 29°58' W 093°52'0 0.0
2016-Jun-09 19:22N 29°58' W 093°52'0 0.0
2016-Jun-09 18:19N 29°58' W 093°52'10 0.3
2016-Jun-08 13:33N 30°02' W 094°02'0 0.0
2016-Jun-08 12:33N 30°02' W 094°02'0 0.0
2016-Jun-08 11:33N 30°02' W 094°02'0 0.0
2016-Jun-08 10:32N 30°02' W 094°02'10 0.2
2016-Jun-06 13:28N 29°58' W 093°52'0 0.1
2016-Jun-06 12:33N 29°58' W 093°52'1 0.3
2016-Jun-06 10:18N 29°57' W 093°52'0 0.0
2016-Jun-06 09:31N 29°57' W 093°52'  
Track history (hours):
 
Tides and Currents Weather Stations Pressure Air Temp Water Temp Dewpoint Dewpoint Depression Visibility Wind Speed Wind Dir Waves Ship Positions

Mari Lampton

Owner: MAgnolia Marine Transport Company, Vicksburg, MS. More information available from US FCC via Universal Licensing System and Coast Guard Vessel Documentation Center.

Last reported at 2016-Jun-15 15:34 UTC. Time now 2016-Jun-26 08:25 UTC.
Position N 32°35' W 091°07'.
Warning: this ship's position is 10 days out of date.

Length 34 m.

Type: Towing. MMSI: 367342210.

Date/timePositionNaut miles runAvg speedWind from/ knotsBaromVisibWave heightAir tempDewpointWater temp
2016-Jun-15 15:34N 32°35' W 091°07'5 4.8
2016-Jun-15 14:28N 32°29' W 091°07'5 5.1
2016-Jun-15 13:34N 32°26' W 091°03'4 4.3
2016-Jun-15 12:34N 32°23' W 091°00'6 5.6
2016-Jun-15 11:33N 32°20' W 090°54'2 1.7
2016-Jun-15 10:34N 32°22' W 090°53'0 0.0
2016-Jun-15 09:34N 32°22' W 090°53'0 0.0
2016-Jun-15 08:34N 32°22' W 090°53'0 0.0
2016-Jun-15 07:34N 32°22' W 090°53'0 0.1
2016-Jun-15 06:33N 32°22' W 090°53'2 1.8
2016-Jun-15 05:34N 32°23' W 090°54'0 0.0
2016-Jun-15 04:33N 32°23' W 090°54'0 0.0
2016-Jun-15 03:34N 32°23' W 090°54'0 0.0
2016-Jun-15 02:34N 32°23' W 090°54'0 0.0
2016-Jun-15 01:34N 32°23' W 090°54'0 0.0
2016-Jun-15 00:34N 32°23' W 090°54'0 0.0
2016-Jun-14 23:34N 32°23' W 090°54'0 0.1
2016-Jun-14 22:34N 32°23' W 090°54'0 0.0
2016-Jun-14 21:34N 32°23' W 090°54'1 0.4
2016-Jun-14 19:24N 32°23' W 090°53'1 1.2
2016-Jun-14 18:33N 32°23' W 090°54'0 0.0
2016-Jun-14 17:34N 32°23' W 090°54'0 0.0
2016-Jun-14 16:33N 32°23' W 090°54'0 0.0
2016-Jun-14 15:33N 32°23' W 090°54'2 1.5
2016-Jun-14 14:33N 32°22' W 090°53'5 4.5
2016-Jun-14 13:33N 32°18' W 090°55'6 6.0
2016-Jun-14 12:33N 32°13' W 090°59'6 6.2
2016-Jun-14 11:33N 32°07' W 091°01'  
2016-Jun-12 00:33N 29°50' W 091°60'6 5.6
2016-Jun-11 23:33N 29°48' W 092°06'6 5.9
2016-Jun-11 22:33N 29°47' W 092°12'3 2.8
2016-Jun-11 21:33N 29°48' W 092°15'5 5.1
2016-Jun-11 20:32N 29°51' W 092°21'33 3.5
2016-Jun-11 11:14N 29°56' W 092°58'4 5.3
2016-Jun-11 10:33N 29°56' W 093°02'5 5.3
2016-Jun-11 09:33N 29°56' W 093°08'5 5.3
2016-Jun-11 08:33N 29°59' W 093°13'4 4.4
2016-Jun-11 07:33N 30°03' W 093°16'4 3.8
2016-Jun-11 06:33N 30°06' W 093°18'0 0.0
2016-Jun-11 05:33N 30°06' W 093°18'4 4.3
2016-Jun-11 04:33N 30°04' W 093°22'6 6.4
2016-Jun-11 03:33N 30°04' W 093°30'6 6.3
2016-Jun-11 02:33N 30°04' W 093°37'14 1.1
2016-Jun-10 14:28N 29°58' W 093°52'0 0.0
2016-Jun-10 13:31N 29°58' W 093°52'0 0.0
2016-Jun-10 12:33N 29°58' W 093°52'0 0.0
2016-Jun-10 11:33N 29°58' W 093°52'0 0.0
2016-Jun-10 10:32N 29°58' W 093°52'0 0.0
2016-Jun-10 09:26N 29°58' W 093°52'0 0.0
2016-Jun-10 07:27N 29°58' W 093°52'0 0.0
2016-Jun-10 06:26N 29°58' W 093°52'0 0.0
2016-Jun-10 05:31N 29°58' W 093°52'0 0.0
2016-Jun-10 04:33N 29°58' W 093°52'0 0.0
2016-Jun-10 03:32N 29°58' W 093°52'0 0.0
2016-Jun-10 02:33N 29°58' W 093°52'0 0.0
2016-Jun-10 01:31N 29°58' W 093°52'0 0.0
2016-Jun-10 00:31N 29°58' W 093°52'0 0.0
2016-Jun-09 23:20N 29°58' W 093°52'0 0.0
2016-Jun-09 22:25N 29°58' W 093°52'0 0.0
2016-Jun-09 21:33N 29°58' W 093°52'0 0.0
2016-Jun-09 19:22N 29°58' W 093°52'0 0.0
2016-Jun-09 18:19N 29°58' W 093°52'10 0.3
2016-Jun-08 13:33N 30°02' W 094°02'0 0.0
2016-Jun-08 12:33N 30°02' W 094°02'0 0.0
2016-Jun-08 11:33N 30°02' W 094°02'0 0.0
2016-Jun-08 10:32N 30°02' W 094°02'10 0.2
2016-Jun-06 13:28N 29°58' W 093°52'0 0.1
2016-Jun-06 12:33N 29°58' W 093°52'1 0.3
2016-Jun-06 10:18N 29°57' W 093°52'0 0.0
2016-Jun-06 09:31N 29°57' W 093°52'  

Dump ship's entire track history